sensor_id;sensor_type;location;lat;lon;timestamp;P1;durP1;ratioP1;P2;durP2;ratioP2
13951;SDS011;39535;52.192;9.886;2023-02-11T00:02:09;60.73;;;33.67;;
13951;SDS011;39535;52.192;9.886;2023-02-11T00:04:37;55.10;;;32.90;;
13951;SDS011;39535;52.192;9.886;2023-02-11T00:07:03;57.83;;;33.40;;
13951;SDS011;39535;52.192;9.886;2023-02-11T00:09:30;60.03;;;33.87;;
13951;SDS011;39535;52.192;9.886;2023-02-11T00:11:56;54.60;;;33.30;;
13951;SDS011;39535;52.192;9.886;2023-02-11T00:14:22;58.93;;;32.67;;
13951;SDS011;39535;52.192;9.886;2023-02-11T00:16:49;61.20;;;33.47;;
13951;SDS011;39535;52.192;9.886;2023-02-11T00:19:15;54.43;;;31.93;;
13951;SDS011;39535;52.192;9.886;2023-02-11T00:21:43;63.53;;;34.17;;
13951;SDS011;39535;52.192;9.886;2023-02-11T00:24:09;58.57;;;32.63;;
13951;SDS011;39535;52.192;9.886;2023-02-11T00:26:36;67.07;;;35.20;;
13951;SDS011;39535;52.192;9.886;2023-02-11T00:29:03;63.00;;;33.13;;
13951;SDS011;39535;52.192;9.886;2023-02-11T00:31:30;64.60;;;35.17;;
13951;SDS011;39535;52.192;9.886;2023-02-11T00:33:56;52.27;;;29.57;;
13951;SDS011;39535;52.192;9.886;2023-02-11T00:36:24;57.57;;;33.27;;
13951;SDS011;39535;52.192;9.886;2023-02-11T00:38:53;59.00;;;33.13;;
13951;SDS011;39535;52.192;9.886;2023-02-11T00:41:21;57.43;;;34.07;;
13951;SDS011;39535;52.192;9.886;2023-02-11T00:43:49;63.97;;;34.37;;
13951;SDS011;39535;52.192;9.886;2023-02-11T00:46:16;58.80;;;34.20;;
13951;SDS011;39535;52.192;9.886;2023-02-11T00:48:42;54.47;;;32.57;;
13951;SDS011;39535;52.192;9.886;2023-02-11T00:51:09;58.13;;;33.47;;
13951;SDS011;39535;52.192;9.886;2023-02-11T00:53:36;62.77;;;35.00;;
13951;SDS011;39535;52.192;9.886;2023-02-11T00:56:04;55.17;;;31.93;;
13951;SDS011;39535;52.192;9.886;2023-02-11T00:58:31;68.17;;;35.37;;
13951;SDS011;39535;52.192;9.886;2023-02-11T01:00:57;68.80;;;35.53;;
13951;SDS011;39535;52.192;9.886;2023-02-11T01:03:24;64.80;;;36.03;;
13951;SDS011;39535;52.192;9.886;2023-02-11T01:05:51;69.50;;;36.93;;
13951;SDS011;39535;52.192;9.886;2023-02-11T01:08:17;67.87;;;38.40;;
13951;SDS011;39535;52.192;9.886;2023-02-11T01:10:43;74.20;;;37.60;;
13951;SDS011;39535;52.192;9.886;2023-02-11T01:13:11;68.50;;;39.17;;
13951;SDS011;39535;52.192;9.886;2023-02-11T01:15:37;72.00;;;37.47;;
13951;SDS011;39535;52.192;9.886;2023-02-11T01:18:04;68.60;;;37.20;;
13951;SDS011;39535;52.192;9.886;2023-02-11T01:20:31;65.73;;;36.90;;
13951;SDS011;39535;52.192;9.886;2023-02-11T01:22:57;66.00;;;37.03;;
13951;SDS011;39535;52.192;9.886;2023-02-11T01:25:24;60.33;;;35.73;;
13951;SDS011;39535;52.192;9.886;2023-02-11T01:27:50;67.93;;;37.13;;
13951;SDS011;39535;52.192;9.886;2023-02-11T01:30:18;68.93;;;37.73;;
13951;SDS011;39535;52.192;9.886;2023-02-11T01:32:44;73.23;;;38.77;;
13951;SDS011;39535;52.192;9.886;2023-02-11T01:35:11;79.30;;;41.67;;
13951;SDS011;39535;52.192;9.886;2023-02-11T01:37:37;80.90;;;40.63;;
13951;SDS011;39535;52.192;9.886;2023-02-11T01:40:05;76.30;;;42.80;;
13951;SDS011;39535;52.192;9.886;2023-02-11T01:42:35;69.97;;;39.10;;
13951;SDS011;39535;52.192;9.886;2023-02-11T01:45:03;66.70;;;36.83;;
13951;SDS011;39535;52.192;9.886;2023-02-11T01:48:20;74.00;;;40.00;;
13951;SDS011;39535;52.192;9.886;2023-02-11T01:50:50;77.27;;;38.63;;
13951;SDS011;39535;52.192;9.886;2023-02-11T01:53:19;72.23;;;39.90;;
13951;SDS011;39535;52.192;9.886;2023-02-11T01:56:03;78.10;;;40.70;;
13951;SDS011;39535;52.192;9.886;2023-02-11T01:58:49;64.07;;;37.80;;
13951;SDS011;39535;52.192;9.886;2023-02-11T02:01:20;68.80;;;37.27;;
13951;SDS011;39535;52.192;9.886;2023-02-11T02:03:51;75.63;;;40.10;;
13951;SDS011;39535;52.192;9.886;2023-02-11T02:06:22;72.40;;;38.70;;
13951;SDS011;39535;52.192;9.886;2023-02-11T02:08:56;70.47;;;38.57;;
13951;SDS011;39535;52.192;9.886;2023-02-11T02:11:28;67.57;;;37.90;;
13951;SDS011;39535;52.192;9.886;2023-02-11T02:13:55;74.40;;;39.97;;
13951;SDS011;39535;52.192;9.886;2023-02-11T02:16:23;70.60;;;39.30;;
13951;SDS011;39535;52.192;9.886;2023-02-11T02:18:55;70.20;;;39.20;;
13951;SDS011;39535;52.192;9.886;2023-02-11T02:21:49;78.40;;;40.73;;
13951;SDS011;39535;52.192;9.886;2023-02-11T02:24:42;70.87;;;38.77;;
13951;SDS011;39535;52.192;9.886;2023-02-11T02:27:27;74.57;;;39.00;;
13951;SDS011;39535;52.192;9.886;2023-02-11T02:33:19;81.83;;;41.63;;
13951;SDS011;39535;52.192;9.886;2023-02-11T02:35:57;72.53;;;41.17;;
13951;SDS011;39535;52.192;9.886;2023-02-11T02:38:32;71.30;;;39.93;;
13951;SDS011;39535;52.192;9.886;2023-02-11T02:41:03;74.90;;;41.13;;
13951;SDS011;39535;52.192;9.886;2023-02-11T02:43:33;72.67;;;41.20;;
13951;SDS011;39535;52.192;9.886;2023-02-11T02:46:09;75.63;;;40.17;;
13951;SDS011;39535;52.192;9.886;2023-02-11T02:48:39;66.83;;;37.80;;
13951;SDS011;39535;52.192;9.886;2023-02-11T02:51:07;73.43;;;39.43;;
13951;SDS011;39535;52.192;9.886;2023-02-11T02:53:44;75.60;;;40.37;;
13951;SDS011;39535;52.192;9.886;2023-02-11T02:56:21;70.20;;;38.87;;
13951;SDS011;39535;52.192;9.886;2023-02-11T02:59:03;73.10;;;40.37;;
13951;SDS011;39535;52.192;9.886;2023-02-11T03:01:41;78.57;;;41.10;;
13951;SDS011;39535;52.192;9.886;2023-02-11T03:04:18;72.97;;;38.63;;
13951;SDS011;39535;52.192;9.886;2023-02-11T03:06:51;69.77;;;39.00;;
13951;SDS011;39535;52.192;9.886;2023-02-11T03:09:25;69.47;;;39.40;;
13951;SDS011;39535;52.192;9.886;2023-02-11T03:11:56;78.10;;;41.40;;
13951;SDS011;39535;52.192;9.886;2023-02-11T03:14:23;68.67;;;38.20;;
13951;SDS011;39535;52.192;9.886;2023-02-11T03:16:53;68.97;;;37.97;;
13951;SDS011;39535;52.192;9.886;2023-02-11T03:19:23;72.20;;;37.90;;
13951;SDS011;39535;52.192;9.886;2023-02-11T03:21:53;73.30;;;39.20;;
13951;SDS011;39535;52.192;9.886;2023-02-11T03:24:22;72.03;;;39.20;;
13951;SDS011;39535;52.192;9.886;2023-02-11T03:26:53;67.50;;;37.90;;
13951;SDS011;39535;52.192;9.886;2023-02-11T03:29:24;67.50;;;37.63;;
13951;SDS011;39535;52.192;9.886;2023-02-11T03:32:00;73.33;;;37.67;;
13951;SDS011;39535;52.192;9.886;2023-02-11T03:34:36;61.63;;;35.67;;
13951;SDS011;39535;52.192;9.886;2023-02-11T03:37:10;65.23;;;37.07;;
13951;SDS011;39535;52.192;9.886;2023-02-11T03:39:41;59.83;;;35.73;;
13951;SDS011;39535;52.192;9.886;2023-02-11T03:42:11;68.27;;;36.57;;
13951;SDS011;39535;52.192;9.886;2023-02-11T03:44:42;69.10;;;36.93;;
13951;SDS011;39535;52.192;9.886;2023-02-11T03:47:14;66.40;;;36.40;;
13951;SDS011;39535;52.192;9.886;2023-02-11T03:49:46;69.47;;;37.60;;
13951;SDS011;39535;52.192;9.886;2023-02-11T03:52:15;64.33;;;36.17;;
13951;SDS011;39535;52.192;9.886;2023-02-11T03:54:43;61.20;;;36.70;;
13951;SDS011;39535;52.192;9.886;2023-02-11T03:57:12;69.03;;;37.87;;
13951;SDS011;39535;52.192;9.886;2023-02-11T03:59:48;58.03;;;35.13;;
13951;SDS011;39535;52.192;9.886;2023-02-11T04:02:16;63.07;;;36.23;;
13951;SDS011;39535;52.192;9.886;2023-02-11T04:04:42;63.80;;;36.33;;
13951;SDS011;39535;52.192;9.886;2023-02-11T04:07:11;63.63;;;35.30;;
13951;SDS011;39535;52.192;9.886;2023-02-11T04:09:37;57.53;;;34.03;;
13951;SDS011;39535;52.192;9.886;2023-02-11T04:12:04;65.67;;;35.97;;
13951;SDS011;39535;52.192;9.886;2023-02-11T04:14:31;64.33;;;36.33;;
13951;SDS011;39535;52.192;9.886;2023-02-11T04:16:57;64.23;;;35.80;;
13951;SDS011;39535;52.192;9.886;2023-02-11T04:19:23;59.97;;;34.27;;
13951;SDS011;39535;52.192;9.886;2023-02-11T04:21:50;57.17;;;33.50;;
13951;SDS011;39535;52.192;9.886;2023-02-11T04:24:18;57.90;;;34.50;;
13951;SDS011;39535;52.192;9.886;2023-02-11T04:26:44;60.20;;;35.37;;
13951;SDS011;39535;52.192;9.886;2023-02-11T04:29:10;69.53;;;37.23;;
13951;SDS011;39535;52.192;9.886;2023-02-11T04:31:37;64.87;;;35.70;;
13951;SDS011;39535;52.192;9.886;2023-02-11T04:34:03;69.57;;;37.57;;
13951;SDS011;39535;52.192;9.886;2023-02-11T04:36:30;66.70;;;36.13;;
13951;SDS011;39535;52.192;9.886;2023-02-11T04:38:56;70.43;;;38.37;;
13951;SDS011;39535;52.192;9.886;2023-02-11T04:41:24;70.93;;;36.83;;
13951;SDS011;39535;52.192;9.886;2023-02-11T04:43:51;65.57;;;36.73;;
13951;SDS011;39535;52.192;9.886;2023-02-11T04:46:17;60.03;;;37.03;;
13951;SDS011;39535;52.192;9.886;2023-02-11T04:48:43;67.63;;;37.37;;
13951;SDS011;39535;52.192;9.886;2023-02-11T04:51:10;67.67;;;37.53;;
13951;SDS011;39535;52.192;9.886;2023-02-11T04:53:36;71.80;;;37.57;;
13951;SDS011;39535;52.192;9.886;2023-02-11T04:56:03;75.10;;;38.10;;
13951;SDS011;39535;52.192;9.886;2023-02-11T04:58:31;64.83;;;36.27;;
13951;SDS011;39535;52.192;9.886;2023-02-11T05:01:03;65.97;;;36.70;;
13951;SDS011;39535;52.192;9.886;2023-02-11T05:03:30;62.20;;;34.77;;
13951;SDS011;39535;52.192;9.886;2023-02-11T05:05:57;56.43;;;35.13;;
13951;SDS011;39535;52.192;9.886;2023-02-11T05:08:23;57.67;;;34.33;;
13951;SDS011;39535;52.192;9.886;2023-02-11T05:10:50;55.10;;;34.40;;
13951;SDS011;39535;52.192;9.886;2023-02-11T05:13:16;50.20;;;31.63;;
13951;SDS011;39535;52.192;9.886;2023-02-11T05:15:44;47.50;;;31.17;;
13951;SDS011;39535;52.192;9.886;2023-02-11T05:18:10;48.27;;;31.83;;
13951;SDS011;39535;52.192;9.886;2023-02-11T05:20:38;46.37;;;31.50;;
13951;SDS011;39535;52.192;9.886;2023-02-11T05:23:05;48.10;;;31.47;;
13951;SDS011;39535;52.192;9.886;2023-02-11T05:25:32;46.67;;;31.57;;
13951;SDS011;39535;52.192;9.886;2023-02-11T05:27:58;51.20;;;30.60;;
13951;SDS011;39535;52.192;9.886;2023-02-11T05:30:25;47.20;;;30.87;;
13951;SDS011;39535;52.192;9.886;2023-02-11T05:32:53;47.20;;;30.40;;
13951;SDS011;39535;52.192;9.886;2023-02-11T05:35:20;42.23;;;28.80;;
13951;SDS011;39535;52.192;9.886;2023-02-11T05:37:46;47.40;;;30.17;;
13951;SDS011;39535;52.192;9.886;2023-02-11T05:40:13;42.27;;;29.03;;
13951;SDS011;39535;52.192;9.886;2023-02-11T05:42:39;44.23;;;29.53;;
13951;SDS011;39535;52.192;9.886;2023-02-11T05:45:06;41.97;;;29.50;;
13951;SDS011;39535;52.192;9.886;2023-02-11T05:47:33;44.83;;;31.43;;
13951;SDS011;39535;52.192;9.886;2023-02-11T05:50:00;44.67;;;30.07;;
13951;SDS011;39535;52.192;9.886;2023-02-11T05:52:28;55.27;;;31.93;;
13951;SDS011;39535;52.192;9.886;2023-02-11T05:54:54;45.87;;;29.53;;
13951;SDS011;39535;52.192;9.886;2023-02-11T05:57:20;42.23;;;30.83;;
13951;SDS011;39535;52.192;9.886;2023-02-11T05:59:47;43.07;;;30.60;;
13951;SDS011;39535;52.192;9.886;2023-02-11T06:02:13;51.67;;;32.27;;
13951;SDS011;39535;52.192;9.886;2023-02-11T06:04:40;56.00;;;32.50;;
13951;SDS011;39535;52.192;9.886;2023-02-11T06:07:07;52.07;;;31.47;;
13951;SDS011;39535;52.192;9.886;2023-02-11T06:09:37;48.77;;;32.30;;
13951;SDS011;39535;52.192;9.886;2023-02-11T06:12:04;53.70;;;31.73;;
13951;SDS011;39535;52.192;9.886;2023-02-11T06:14:31;48.40;;;31.43;;
13951;SDS011;39535;52.192;9.886;2023-02-11T06:16:57;48.83;;;31.40;;
13951;SDS011;39535;52.192;9.886;2023-02-11T06:19:24;47.47;;;32.77;;
13951;SDS011;39535;52.192;9.886;2023-02-11T06:21:50;47.30;;;29.97;;
13951;SDS011;39535;52.192;9.886;2023-02-11T06:24:18;46.30;;;30.27;;
13951;SDS011;39535;52.192;9.886;2023-02-11T06:26:44;48.43;;;31.50;;
13951;SDS011;39535;52.192;9.886;2023-02-11T06:29:10;45.77;;;31.80;;
13951;SDS011;39535;52.192;9.886;2023-02-11T06:31:37;55.27;;;33.03;;
13951;SDS011;39535;52.192;9.886;2023-02-11T06:34:05;52.83;;;33.93;;
13951;SDS011;39535;52.192;9.886;2023-02-11T06:36:31;47.87;;;31.30;;
13951;SDS011;39535;52.192;9.886;2023-02-11T06:38:58;59.73;;;31.83;;
13951;SDS011;39535;52.192;9.886;2023-02-11T06:41:26;51.73;;;31.93;;
13951;SDS011;39535;52.192;9.886;2023-02-11T06:43:53;54.63;;;34.27;;
13951;SDS011;39535;52.192;9.886;2023-02-11T06:46:19;50.93;;;33.33;;
13951;SDS011;39535;52.192;9.886;2023-02-11T06:48:46;49.73;;;31.90;;
13951;SDS011;39535;52.192;9.886;2023-02-11T06:51:12;62.30;;;33.93;;
13951;SDS011;39535;52.192;9.886;2023-02-11T06:53:40;55.20;;;34.00;;
13951;SDS011;39535;52.192;9.886;2023-02-11T06:56:09;53.70;;;32.87;;
13951;SDS011;39535;52.192;9.886;2023-02-11T06:58:38;62.50;;;34.57;;
13951;SDS011;39535;52.192;9.886;2023-02-11T07:01:05;55.97;;;34.60;;
13951;SDS011;39535;52.192;9.886;2023-02-11T07:03:33;54.73;;;33.27;;
13951;SDS011;39535;52.192;9.886;2023-02-11T07:06:00;48.90;;;32.40;;
13951;SDS011;39535;52.192;9.886;2023-02-11T07:08:27;55.97;;;33.57;;
13951;SDS011;39535;52.192;9.886;2023-02-11T07:10:53;49.83;;;31.60;;
13951;SDS011;39535;52.192;9.886;2023-02-11T07:13:20;54.43;;;32.33;;
13951;SDS011;39535;52.192;9.886;2023-02-11T07:15:47;54.30;;;32.30;;
13951;SDS011;39535;52.192;9.886;2023-02-11T07:18:14;65.97;;;35.43;;
13951;SDS011;39535;52.192;9.886;2023-02-11T07:20:41;52.00;;;33.33;;
13951;SDS011;39535;52.192;9.886;2023-02-11T07:23:08;59.57;;;34.00;;
13951;SDS011;39535;52.192;9.886;2023-02-11T07:25:34;53.33;;;34.00;;
13951;SDS011;39535;52.192;9.886;2023-02-11T07:28:02;49.53;;;33.17;;
13951;SDS011;39535;52.192;9.886;2023-02-11T07:30:28;59.50;;;35.10;;
13951;SDS011;39535;52.192;9.886;2023-02-11T07:32:56;55.87;;;34.53;;
13951;SDS011;39535;52.192;9.886;2023-02-11T07:35:22;59.57;;;34.20;;
13951;SDS011;39535;52.192;9.886;2023-02-11T07:37:49;53.10;;;32.70;;
13951;SDS011;39535;52.192;9.886;2023-02-11T07:40:15;61.57;;;33.73;;
13951;SDS011;39535;52.192;9.886;2023-02-11T07:42:42;62.47;;;32.83;;
13951;SDS011;39535;52.192;9.886;2023-02-11T07:45:08;59.93;;;34.33;;
13951;SDS011;39535;52.192;9.886;2023-02-11T07:47:35;54.50;;;33.93;;
13951;SDS011;39535;52.192;9.886;2023-02-11T07:50:03;55.30;;;33.83;;
13951;SDS011;39535;52.192;9.886;2023-02-11T07:52:30;54.00;;;34.13;;
13951;SDS011;39535;52.192;9.886;2023-02-11T07:54:57;56.97;;;32.97;;
13951;SDS011;39535;52.192;9.886;2023-02-11T07:57:23;57.83;;;34.90;;
13951;SDS011;39535;52.192;9.886;2023-02-11T07:59:50;57.37;;;33.80;;
13951;SDS011;39535;52.192;9.886;2023-02-11T08:02:18;56.63;;;35.37;;
13951;SDS011;39535;52.192;9.886;2023-02-11T08:04:44;60.50;;;33.20;;
13951;SDS011;39535;52.192;9.886;2023-02-11T08:07:14;59.60;;;33.50;;
13951;SDS011;39535;52.192;9.886;2023-02-11T08:09:41;54.40;;;33.43;;
13951;SDS011;39535;52.192;9.886;2023-02-11T08:12:07;47.03;;;29.47;;
13951;SDS011;39535;52.192;9.886;2023-02-11T08:14:34;51.20;;;32.50;;
13951;SDS011;39535;52.192;9.886;2023-02-11T08:17:00;51.97;;;32.93;;
13951;SDS011;39535;52.192;9.886;2023-02-11T08:19:26;57.23;;;34.33;;
13951;SDS011;39535;52.192;9.886;2023-02-11T08:21:53;60.65;;;40.50;;
13951;SDS011;39535;52.192;9.886;2023-02-11T08:24:21;58.37;;;33.43;;
13951;SDS011;39535;52.192;9.886;2023-02-11T08:26:48;55.40;;;32.63;;
13951;SDS011;39535;52.192;9.886;2023-02-11T08:29:15;52.40;;;32.50;;
13951;SDS011;39535;52.192;9.886;2023-02-11T08:31:43;56.60;;;32.90;;
13951;SDS011;39535;52.192;9.886;2023-02-11T08:34:11;53.20;;;30.70;;
13951;SDS011;39535;52.192;9.886;2023-02-11T08:36:39;58.33;;;33.00;;
13951;SDS011;39535;52.192;9.886;2023-02-11T08:39:08;57.87;;;32.80;;
13951;SDS011;39535;52.192;9.886;2023-02-11T08:41:39;59.00;;;33.40;;
13951;SDS011;39535;52.192;9.886;2023-02-11T08:44:06;53.13;;;32.23;;
13951;SDS011;39535;52.192;9.886;2023-02-11T08:46:32;62.83;;;33.67;;
13951;SDS011;39535;52.192;9.886;2023-02-11T08:48:58;65.50;;;35.53;;
13951;SDS011;39535;52.192;9.886;2023-02-11T08:51:26;59.00;;;33.60;;
13951;SDS011;39535;52.192;9.886;2023-02-11T08:53:54;61.70;;;36.50;;
13951;SDS011;39535;52.192;9.886;2023-02-11T08:56:21;48.70;;;32.17;;
13951;SDS011;39535;52.192;9.886;2023-02-11T08:58:50;50.93;;;32.87;;
13951;SDS011;39535;52.192;9.886;2023-02-11T09:01:18;52.03;;;33.73;;
13951;SDS011;39535;52.192;9.886;2023-02-11T09:03:46;55.80;;;32.37;;
13951;SDS011;39535;52.192;9.886;2023-02-11T09:06:13;68.33;;;34.67;;
13951;SDS011;39535;52.192;9.886;2023-02-11T09:08:42;51.53;;;32.03;;
13951;SDS011;39535;52.192;9.886;2023-02-11T09:11:13;55.37;;;33.73;;
13951;SDS011;39535;52.192;9.886;2023-02-11T09:13:40;57.80;;;34.63;;
13951;SDS011;39535;52.192;9.886;2023-02-11T09:16:13;54.40;;;32.23;;
13951;SDS011;39535;52.192;9.886;2023-02-11T09:18:42;56.63;;;32.97;;
13951;SDS011;39535;52.192;9.886;2023-02-11T09:21:09;54.33;;;31.43;;
13951;SDS011;39535;52.192;9.886;2023-02-11T09:23:36;49.07;;;31.03;;
13951;SDS011;39535;52.192;9.886;2023-02-11T09:26:05;55.33;;;32.17;;
13951;SDS011;39535;52.192;9.886;2023-02-11T09:28:32;51.07;;;30.63;;
13951;SDS011;39535;52.192;9.886;2023-02-11T09:30:59;52.80;;;31.47;;
13951;SDS011;39535;52.192;9.886;2023-02-11T09:33:31;59.37;;;31.47;;
13951;SDS011;39535;52.192;9.886;2023-02-11T09:35:59;52.20;;;31.13;;
13951;SDS011;39535;52.192;9.886;2023-02-11T09:38:25;58.13;;;30.93;;
13951;SDS011;39535;52.192;9.886;2023-02-11T09:40:52;48.30;;;30.73;;
13951;SDS011;39535;52.192;9.886;2023-02-11T09:43:19;46.20;;;29.97;;
13951;SDS011;39535;52.192;9.886;2023-02-11T09:45:47;55.80;;;30.73;;
13951;SDS011;39535;52.192;9.886;2023-02-11T09:48:16;54.10;;;31.57;;
13951;SDS011;39535;52.192;9.886;2023-02-11T09:50:45;48.80;;;30.27;;
13951;SDS011;39535;52.192;9.886;2023-02-11T09:53:16;50.63;;;29.57;;
13951;SDS011;39535;52.192;9.886;2023-02-11T09:55:48;48.10;;;29.13;;
13951;SDS011;39535;52.192;9.886;2023-02-11T09:58:22;54.23;;;29.00;;
13951;SDS011;39535;52.192;9.886;2023-02-11T10:00:52;48.50;;;30.63;;
13951;SDS011;39535;52.192;9.886;2023-02-11T10:03:38;55.40;;;30.60;;
13951;SDS011;39535;52.192;9.886;2023-02-11T10:06:23;53.30;;;30.77;;
13951;SDS011;39535;52.192;9.886;2023-02-11T10:09:03;50.37;;;30.00;;
13951;SDS011;39535;52.192;9.886;2023-02-11T10:11:45;51.87;;;30.27;;
13951;SDS011;39535;52.192;9.886;2023-02-11T10:14:22;52.23;;;32.53;;
13951;SDS011;39535;52.192;9.886;2023-02-11T10:17:00;50.23;;;30.77;;
13951;SDS011;39535;52.192;9.886;2023-02-11T10:19:41;54.40;;;30.33;;
13951;SDS011;39535;52.192;9.886;2023-02-11T10:22:19;56.53;;;30.87;;
13951;SDS011;39535;52.192;9.886;2023-02-11T10:24:49;45.47;;;29.17;;
13951;SDS011;39535;52.192;9.886;2023-02-11T10:27:19;44.87;;;29.70;;
13951;SDS011;39535;52.192;9.886;2023-02-11T10:29:50;47.90;;;30.17;;
13951;SDS011;39535;52.192;9.886;2023-02-11T10:32:24;43.67;;;28.73;;
13951;SDS011;39535;52.192;9.886;2023-02-11T10:34:55;49.63;;;28.83;;
13951;SDS011;39535;52.192;9.886;2023-02-11T10:37:27;45.67;;;28.33;;
13951;SDS011;39535;52.192;9.886;2023-02-11T10:39:54;49.93;;;29.60;;
13951;SDS011;39535;52.192;9.886;2023-02-11T10:42:21;39.47;;;27.43;;
13951;SDS011;39535;52.192;9.886;2023-02-11T10:44:49;56.53;;;30.53;;
13951;SDS011;39535;52.192;9.886;2023-02-11T10:47:23;53.77;;;31.27;;
13951;SDS011;39535;52.192;9.886;2023-02-11T10:49:52;49.93;;;30.03;;
13951;SDS011;39535;52.192;9.886;2023-02-11T10:52:20;54.83;;;30.30;;
13951;SDS011;39535;52.192;9.886;2023-02-11T10:57:42;50.13;;;29.83;;
13951;SDS011;39535;52.192;9.886;2023-02-11T11:00:19;50.20;;;29.70;;
13951;SDS011;39535;52.192;9.886;2023-02-11T11:03:00;50.77;;;29.30;;
13951;SDS011;39535;52.192;9.886;2023-02-11T11:05:30;48.57;;;29.57;;
13951;SDS011;39535;52.192;9.886;2023-02-11T11:07:58;47.43;;;28.67;;
13951;SDS011;39535;52.192;9.886;2023-02-11T11:10:30;47.97;;;26.90;;
13951;SDS011;39535;52.192;9.886;2023-02-11T11:13:09;53.87;;;28.37;;
13951;SDS011;39535;52.192;9.886;2023-02-11T11:15:55;40.03;;;27.53;;
13951;SDS011;39535;52.192;9.886;2023-02-11T11:18:41;43.60;;;26.87;;
13951;SDS011;39535;52.192;9.886;2023-02-11T11:21:11;42.73;;;27.80;;
13951;SDS011;39535;52.192;9.886;2023-02-11T11:23:45;40.57;;;26.80;;
13951;SDS011;39535;52.192;9.886;2023-02-11T11:26:15;41.83;;;26.30;;
13951;SDS011;39535;52.192;9.886;2023-02-11T11:28:49;41.80;;;26.67;;
13951;SDS011;39535;52.192;9.886;2023-02-11T11:31:19;40.27;;;26.73;;
13951;SDS011;39535;52.192;9.886;2023-02-11T11:33:47;40.83;;;27.00;;
13951;SDS011;39535;52.192;9.886;2023-02-11T11:36:19;39.37;;;26.13;;
13951;SDS011;39535;52.192;9.886;2023-02-11T11:38:48;44.13;;;25.83;;
13951;SDS011;39535;52.192;9.886;2023-02-11T11:41:20;44.23;;;26.23;;
13951;SDS011;39535;52.192;9.886;2023-02-11T11:44:00;42.37;;;25.77;;
13951;SDS011;39535;52.192;9.886;2023-02-11T11:46:29;39.80;;;25.67;;
13951;SDS011;39535;52.192;9.886;2023-02-11T11:49:03;39.67;;;26.77;;
13951;SDS011;39535;52.192;9.886;2023-02-11T11:51:38;39.27;;;24.60;;
13951;SDS011;39535;52.192;9.886;2023-02-11T11:54:11;35.53;;;23.63;;
13951;SDS011;39535;52.192;9.886;2023-02-11T11:56:45;40.37;;;24.73;;
13951;SDS011;39535;52.192;9.886;2023-02-11T11:59:16;35.97;;;23.60;;
13951;SDS011;39535;52.192;9.886;2023-02-11T12:01:46;36.73;;;25.80;;
13951;SDS011;39535;52.192;9.886;2023-02-11T12:04:25;34.23;;;23.67;;
13951;SDS011;39535;52.192;9.886;2023-02-11T12:07:24;42.20;;;25.10;;
13951;SDS011;39535;52.192;9.886;2023-02-11T12:10:05;30.47;;;23.50;;
13951;SDS011;39535;52.192;9.886;2023-02-11T12:12:45;35.80;;;23.93;;
13951;SDS011;39535;52.192;9.886;2023-02-11T12:15:22;32.23;;;24.00;;
13951;SDS011;39535;52.192;9.886;2023-02-11T12:17:59;34.57;;;22.47;;
13951;SDS011;39535;52.192;9.886;2023-02-11T12:20:42;27.77;;;19.60;;
13951;SDS011;39535;52.192;9.886;2023-02-11T12:23:28;35.50;;;23.33;;
13951;SDS011;39535;52.192;9.886;2023-02-11T12:26:05;35.93;;;24.23;;
13951;SDS011;39535;52.192;9.886;2023-02-11T12:29:03;25.47;;;21.67;;
13951;SDS011;39535;52.192;9.886;2023-02-11T12:31:42;26.53;;;20.77;;
13951;SDS011;39535;52.192;9.886;2023-02-11T12:34:31;31.40;;;21.30;;
13951;SDS011;39535;52.192;9.886;2023-02-11T12:37:06;24.97;;;21.07;;
13951;SDS011;39535;52.192;9.886;2023-02-11T12:39:47;25.60;;;20.13;;
13951;SDS011;39535;52.192;9.886;2023-02-11T12:42:20;21.83;;;19.47;;
13951;SDS011;39535;52.192;9.886;2023-02-11T12:45:19;27.23;;;20.90;;
13951;SDS011;39535;52.192;9.886;2023-02-11T12:47:58;28.13;;;20.50;;
13951;SDS011;39535;52.192;9.886;2023-02-11T12:50:35;26.83;;;22.33;;
13951;SDS011;39535;52.192;9.886;2023-02-11T12:53:20;25.60;;;21.30;;
13951;SDS011;39535;52.192;9.886;2023-02-11T12:55:58;28.03;;;21.13;;
13951;SDS011;39535;52.192;9.886;2023-02-11T12:58:30;28.80;;;22.30;;
13951;SDS011;39535;52.192;9.886;2023-02-11T13:01:05;29.40;;;21.93;;
13951;SDS011;39535;52.192;9.886;2023-02-11T13:03:36;26.20;;;20.13;;
13951;SDS011;39535;52.192;9.886;2023-02-11T13:06:08;31.17;;;20.67;;
13951;SDS011;39535;52.192;9.886;2023-02-11T13:08:39;29.13;;;22.23;;
13951;SDS011;39535;52.192;9.886;2023-02-11T13:11:10;30.83;;;23.60;;
13951;SDS011;39535;52.192;9.886;2023-02-11T13:13:45;35.20;;;23.80;;
13951;SDS011;39535;52.192;9.886;2023-02-11T13:16:18;34.50;;;22.73;;
13951;SDS011;39535;52.192;9.886;2023-02-11T13:18:53;30.27;;;21.83;;
13951;SDS011;39535;52.192;9.886;2023-02-11T13:21:33;32.63;;;20.53;;
13951;SDS011;39535;52.192;9.886;2023-02-11T13:24:13;35.27;;;22.97;;
13951;SDS011;39535;52.192;9.886;2023-02-11T13:26:45;31.07;;;22.20;;
13951;SDS011;39535;52.192;9.886;2023-02-11T13:29:21;31.30;;;22.73;;
13951;SDS011;39535;52.192;9.886;2023-02-11T13:32:04;36.30;;;23.47;;
13951;SDS011;39535;52.192;9.886;2023-02-11T13:37:20;37.17;;;25.47;;
13951;SDS011;39535;52.192;9.886;2023-02-11T13:40:00;36.53;;;23.73;;
13951;SDS011;39535;52.192;9.886;2023-02-11T13:42:28;40.03;;;24.50;;
13951;SDS011;39535;52.192;9.886;2023-02-11T13:44:55;38.50;;;23.70;;
13951;SDS011;39535;52.192;9.886;2023-02-11T13:49:59;43.83;;;30.53;;
13951;SDS011;39535;52.192;9.886;2023-02-11T13:52:29;46.37;;;30.93;;
13951;SDS011;39535;52.192;9.886;2023-02-11T13:55:02;43.83;;;25.97;;
13951;SDS011;39535;52.192;9.886;2023-02-11T13:57:35;36.63;;;24.73;;
13951;SDS011;39535;52.192;9.886;2023-02-11T14:00:08;39.57;;;26.47;;
13951;SDS011;39535;52.192;9.886;2023-02-11T14:03:22;38.20;;;25.53;;
13951;SDS011;39535;52.192;9.886;2023-02-11T14:06:12;47.27;;;26.17;;
13951;SDS011;39535;52.192;9.886;2023-02-11T14:09:09;36.60;;;25.20;;
13951;SDS011;39535;52.192;9.886;2023-02-11T14:12:22;54.30;;;33.10;;
13951;SDS011;39535;52.192;9.886;2023-02-11T14:15:16;35.67;;;25.30;;
13951;SDS011;39535;52.192;9.886;2023-02-11T14:17:44;45.90;;;25.93;;
13951;SDS011;39535;52.192;9.886;2023-02-11T14:20:32;44.00;;;27.00;;
13951;SDS011;39535;52.192;9.886;2023-02-11T14:23:01;37.47;;;25.30;;
13951;SDS011;39535;52.192;9.886;2023-02-11T14:25:30;32.07;;;22.33;;
13951;SDS011;39535;52.192;9.886;2023-02-11T14:27:58;34.97;;;24.13;;
13951;SDS011;39535;52.192;9.886;2023-02-11T14:30:33;38.03;;;25.10;;
13951;SDS011;39535;52.192;9.886;2023-02-11T14:36:19;31.43;;;22.57;;
13951;SDS011;39535;52.192;9.886;2023-02-11T14:39:01;31.93;;;23.00;;
13951;SDS011;39535;52.192;9.886;2023-02-11T14:41:37;35.67;;;22.80;;
13951;SDS011;39535;52.192;9.886;2023-02-11T14:44:07;28.03;;;22.73;;
13951;SDS011;39535;52.192;9.886;2023-02-11T14:46:42;28.13;;;21.83;;
13951;SDS011;39535;52.192;9.886;2023-02-11T14:49:11;31.80;;;23.53;;
13951;SDS011;39535;52.192;9.886;2023-02-11T14:51:47;34.53;;;23.27;;
13951;SDS011;39535;52.192;9.886;2023-02-11T14:54:14;31.57;;;20.83;;
13951;SDS011;39535;52.192;9.886;2023-02-11T14:56:45;29.67;;;21.37;;
13951;SDS011;39535;52.192;9.886;2023-02-11T14:59:14;27.93;;;21.13;;